sensor_id;sensor_type;location;lat;lon;timestamp;P1;durP1;ratioP1;P2;durP2;ratioP2
54883;SDS011;40776;52.880;6.016;2023-04-01T00:01:00;6.50;;;4.05;;
54883;SDS011;40776;52.880;6.016;2023-04-01T00:03:27;6.85;;;3.80;;
54883;SDS011;40776;52.880;6.016;2023-04-01T00:08:50;8.73;;;3.97;;
54883;SDS011;40776;52.880;6.016;2023-04-01T00:11:17;5.93;;;3.72;;
54883;SDS011;40776;52.880;6.016;2023-04-01T00:13:44;6.68;;;3.97;;
54883;SDS011;40776;52.880;6.016;2023-04-01T00:16:10;5.82;;;3.90;;
54883;SDS011;40776;52.880;6.016;2023-04-01T00:18:36;7.60;;;3.72;;
54883;SDS011;40776;52.880;6.016;2023-04-01T00:21:02;6.03;;;3.65;;
54883;SDS011;40776;52.880;6.016;2023-04-01T00:23:28;6.32;;;4.32;;
54883;SDS011;40776;52.880;6.016;2023-04-01T00:25:54;7.28;;;4.18;;
54883;SDS011;40776;52.880;6.016;2023-04-01T00:28:20;6.05;;;4.30;;
54883;SDS011;40776;52.880;6.016;2023-04-01T00:30:46;6.30;;;4.70;;
54883;SDS011;40776;52.880;6.016;2023-04-01T00:33:12;6.38;;;4.25;;
54883;SDS011;40776;52.880;6.016;2023-04-01T00:35:38;6.15;;;4.53;;
54883;SDS011;40776;52.880;6.016;2023-04-01T00:38:05;7.50;;;5.05;;
54883;SDS011;40776;52.880;6.016;2023-04-01T00:40:35;8.55;;;4.50;;
54883;SDS011;40776;52.880;6.016;2023-04-01T00:43:02;11.35;;;5.82;;
54883;SDS011;40776;52.880;6.016;2023-04-01T00:47:55;7.82;;;4.97;;
54883;SDS011;40776;52.880;6.016;2023-04-01T00:50:22;6.82;;;4.65;;
54883;SDS011;40776;52.880;6.016;2023-04-01T00:52:49;8.88;;;5.40;;
54883;SDS011;40776;52.880;6.016;2023-04-01T00:55:16;7.20;;;5.10;;
54883;SDS011;40776;52.880;6.016;2023-04-01T00:57:44;9.30;;;5.22;;
54883;SDS011;40776;52.880;6.016;2023-04-01T01:00:11;7.57;;;4.60;;
54883;SDS011;40776;52.880;6.016;2023-04-01T01:02:41;7.25;;;4.68;;
54883;SDS011;40776;52.880;6.016;2023-04-01T01:05:07;7.70;;;5.22;;
54883;SDS011;40776;52.880;6.016;2023-04-01T01:20:21;8.57;;;5.05;;
54883;SDS011;40776;52.880;6.016;2023-04-01T01:23:13;8.90;;;5.20;;
54883;SDS011;40776;52.880;6.016;2023-04-01T01:25:44;8.30;;;5.20;;
54883;SDS011;40776;52.880;6.016;2023-04-01T01:28:28;8.27;;;5.10;;
54883;SDS011;40776;52.880;6.016;2023-04-01T01:31:00;11.70;;;5.15;;
54883;SDS011;40776;52.880;6.016;2023-04-01T01:35:55;12.30;;;5.93;;
54883;SDS011;40776;52.880;6.016;2023-04-01T01:38:23;7.30;;;5.13;;
54883;SDS011;40776;52.880;6.016;2023-04-01T01:40:50;6.60;;;4.63;;
54883;SDS011;40776;52.880;6.016;2023-04-01T01:43:22;6.53;;;4.82;;
54883;SDS011;40776;52.880;6.016;2023-04-01T01:45:51;9.00;;;5.05;;
54883;SDS011;40776;52.880;6.016;2023-04-01T01:48:18;8.57;;;5.15;;
54883;SDS011;40776;52.880;6.016;2023-04-01T01:50:45;8.95;;;5.35;;
54883;SDS011;40776;52.880;6.016;2023-04-01T01:53:12;7.25;;;4.72;;
54883;SDS011;40776;52.880;6.016;2023-04-01T01:55:42;7.45;;;4.70;;
54883;SDS011;40776;52.880;6.016;2023-04-01T02:00:38;8.07;;;5.05;;
54883;SDS011;40776;52.880;6.016;2023-04-01T02:03:05;8.20;;;5.05;;
54883;SDS011;40776;52.880;6.016;2023-04-01T02:05:31;8.93;;;4.88;;
54883;SDS011;40776;52.880;6.016;2023-04-01T02:08:08;9.68;;;5.47;;
54883;SDS011;40776;52.880;6.016;2023-04-01T02:10:36;8.90;;;5.57;;
54883;SDS011;40776;52.880;6.016;2023-04-01T02:13:05;9.45;;;5.13;;
54883;SDS011;40776;52.880;6.016;2023-04-01T02:15:33;9.25;;;5.72;;
54883;SDS011;40776;52.880;6.016;2023-04-01T02:18:02;8.95;;;5.50;;
54883;SDS011;40776;52.880;6.016;2023-04-01T02:20:29;8.50;;;5.70;;
54883;SDS011;40776;52.880;6.016;2023-04-01T02:22:55;9.20;;;6.03;;
54883;SDS011;40776;52.880;6.016;2023-04-01T02:25:24;10.05;;;5.57;;
54883;SDS011;40776;52.880;6.016;2023-04-01T02:27:50;9.70;;;5.68;;
54883;SDS011;40776;52.880;6.016;2023-04-01T02:30:17;9.82;;;6.15;;
54883;SDS011;40776;52.880;6.016;2023-04-01T02:32:44;11.00;;;6.13;;
54883;SDS011;40776;52.880;6.016;2023-04-01T02:35:11;11.35;;;6.45;;
54883;SDS011;40776;52.880;6.016;2023-04-01T02:37:38;10.07;;;5.20;;
54883;SDS011;40776;52.880;6.016;2023-04-01T02:40:07;10.35;;;5.85;;
54883;SDS011;40776;52.880;6.016;2023-04-01T02:42:34;9.35;;;5.40;;
54883;SDS011;40776;52.880;6.016;2023-04-01T02:45:01;9.15;;;5.18;;
54883;SDS011;40776;52.880;6.016;2023-04-01T02:47:27;9.93;;;6.03;;
54883;SDS011;40776;52.880;6.016;2023-04-01T02:49:54;9.27;;;5.47;;
54883;SDS011;40776;52.880;6.016;2023-04-01T02:52:24;10.02;;;5.47;;
54883;SDS011;40776;52.880;6.016;2023-04-01T02:54:50;11.32;;;6.00;;
54883;SDS011;40776;52.880;6.016;2023-04-01T02:57:16;11.52;;;5.57;;
54883;SDS011;40776;52.880;6.016;2023-04-01T02:59:42;10.50;;;5.53;;
54883;SDS011;40776;52.880;6.016;2023-04-01T03:02:08;10.13;;;4.88;;
54883;SDS011;40776;52.880;6.016;2023-04-01T03:04:34;7.85;;;5.25;;
54883;SDS011;40776;52.880;6.016;2023-04-01T03:07:00;9.75;;;5.38;;
54883;SDS011;40776;52.880;6.016;2023-04-01T03:09:26;10.27;;;5.88;;
54883;SDS011;40776;52.880;6.016;2023-04-01T03:11:53;7.13;;;4.47;;
54883;SDS011;40776;52.880;6.016;2023-04-01T03:14:19;8.90;;;5.18;;
54883;SDS011;40776;52.880;6.016;2023-04-01T03:16:45;8.73;;;4.80;;
54883;SDS011;40776;52.880;6.016;2023-04-01T03:19:11;6.70;;;4.20;;
54883;SDS011;40776;52.880;6.016;2023-04-01T03:21:37;7.85;;;4.03;;
54883;SDS011;40776;52.880;6.016;2023-04-01T03:24:03;5.65;;;3.03;;
54883;SDS011;40776;52.880;6.016;2023-04-01T03:26:30;4.72;;;3.05;;
54883;SDS011;40776;52.880;6.016;2023-04-01T03:28:56;4.60;;;2.72;;
54883;SDS011;40776;52.880;6.016;2023-04-01T03:31:22;5.63;;;2.75;;
54883;SDS011;40776;52.880;6.016;2023-04-01T03:33:48;4.75;;;2.38;;
54883;SDS011;40776;52.880;6.016;2023-04-01T03:36:14;4.43;;;2.45;;
54883;SDS011;40776;52.880;6.016;2023-04-01T03:38:40;3.95;;;2.25;;
54883;SDS011;40776;52.880;6.016;2023-04-01T03:41:07;5.22;;;2.80;;
54883;SDS011;40776;52.880;6.016;2023-04-01T03:43:33;6.40;;;2.03;;
54883;SDS011;40776;52.880;6.016;2023-04-01T03:45:59;3.95;;;2.30;;
54883;SDS011;40776;52.880;6.016;2023-04-01T03:48:25;5.20;;;2.40;;
54883;SDS011;40776;52.880;6.016;2023-04-01T03:50:51;5.15;;;2.17;;
54883;SDS011;40776;52.880;6.016;2023-04-01T03:53:17;4.28;;;2.30;;
54883;SDS011;40776;52.880;6.016;2023-04-01T03:55:43;4.63;;;2.22;;
54883;SDS011;40776;52.880;6.016;2023-04-01T03:58:10;4.93;;;2.20;;
54883;SDS011;40776;52.880;6.016;2023-04-01T04:00:36;4.13;;;2.15;;
54883;SDS011;40776;52.880;6.016;2023-04-01T04:03:02;4.93;;;2.38;;
54883;SDS011;40776;52.880;6.016;2023-04-01T04:05:28;4.13;;;2.20;;
54883;SDS011;40776;52.880;6.016;2023-04-01T04:07:54;4.13;;;2.53;;
54883;SDS011;40776;52.880;6.016;2023-04-01T04:10:20;4.68;;;2.92;;
54883;SDS011;40776;52.880;6.016;2023-04-01T04:12:48;5.43;;;2.83;;
54883;SDS011;40776;52.880;6.016;2023-04-01T04:15:14;5.20;;;2.92;;
54883;SDS011;40776;52.880;6.016;2023-04-01T04:17:40;5.32;;;2.70;;
54883;SDS011;40776;52.880;6.016;2023-04-01T04:20:07;6.80;;;3.15;;
54883;SDS011;40776;52.880;6.016;2023-04-01T04:22:34;5.30;;;2.72;;
54883;SDS011;40776;52.880;6.016;2023-04-01T04:25:00;5.32;;;2.55;;
54883;SDS011;40776;52.880;6.016;2023-04-01T04:27:26;6.00;;;3.10;;
54883;SDS011;40776;52.880;6.016;2023-04-01T04:29:52;6.15;;;2.92;;
54883;SDS011;40776;52.880;6.016;2023-04-01T04:32:18;6.88;;;3.30;;
54883;SDS011;40776;52.880;6.016;2023-04-01T04:34:44;5.50;;;2.97;;
54883;SDS011;40776;52.880;6.016;2023-04-01T04:37:10;6.25;;;3.38;;
54883;SDS011;40776;52.880;6.016;2023-04-01T04:39:36;7.13;;;3.38;;
54883;SDS011;40776;52.880;6.016;2023-04-01T04:42:02;6.97;;;3.60;;
54883;SDS011;40776;52.880;6.016;2023-04-01T04:44:28;6.43;;;2.95;;
54883;SDS011;40776;52.880;6.016;2023-04-01T04:46:54;6.47;;;2.97;;
54883;SDS011;40776;52.880;6.016;2023-04-01T04:49:20;6.20;;;3.10;;
54883;SDS011;40776;52.880;6.016;2023-04-01T04:51:46;12.25;;;3.30;;
54883;SDS011;40776;52.880;6.016;2023-04-01T04:54:13;6.60;;;3.05;;
54883;SDS011;40776;52.880;6.016;2023-04-01T04:56:39;6.65;;;3.17;;
54883;SDS011;40776;52.880;6.016;2023-04-01T04:59:05;7.43;;;3.28;;
54883;SDS011;40776;52.880;6.016;2023-04-01T05:01:32;6.00;;;3.20;;
54883;SDS011;40776;52.880;6.016;2023-04-01T05:03:58;6.85;;;3.35;;
54883;SDS011;40776;52.880;6.016;2023-04-01T05:06:24;6.32;;;3.05;;
54883;SDS011;40776;52.880;6.016;2023-04-01T05:08:50;6.53;;;2.97;;
54883;SDS011;40776;52.880;6.016;2023-04-01T05:11:17;7.28;;;3.08;;
54883;SDS011;40776;52.880;6.016;2023-04-01T05:13:44;6.70;;;3.53;;
54883;SDS011;40776;52.880;6.016;2023-04-01T05:16:11;6.80;;;3.28;;
54883;SDS011;40776;52.880;6.016;2023-04-01T05:18:37;6.93;;;3.75;;
54883;SDS011;40776;52.880;6.016;2023-04-01T05:21:03;6.65;;;3.42;;
54883;SDS011;40776;52.880;6.016;2023-04-01T05:23:30;9.80;;;4.35;;
54883;SDS011;40776;52.880;6.016;2023-04-01T05:25:57;10.55;;;3.92;;
54883;SDS011;40776;52.880;6.016;2023-04-01T05:28:23;9.23;;;4.18;;
54883;SDS011;40776;52.880;6.016;2023-04-01T05:30:49;9.55;;;4.60;;
54883;SDS011;40776;52.880;6.016;2023-04-01T05:33:15;11.07;;;4.57;;
54883;SDS011;40776;52.880;6.016;2023-04-01T05:35:41;10.93;;;4.45;;
54883;SDS011;40776;52.880;6.016;2023-04-01T05:38:07;12.35;;;5.05;;
54883;SDS011;40776;52.880;6.016;2023-04-01T05:40:33;15.20;;;5.57;;
54883;SDS011;40776;52.880;6.016;2023-04-01T05:42:59;15.90;;;6.18;;
54883;SDS011;40776;52.880;6.016;2023-04-01T05:45:26;15.63;;;6.68;;
54883;SDS011;40776;52.880;6.016;2023-04-01T05:47:52;15.32;;;6.28;;
54883;SDS011;40776;52.880;6.016;2023-04-01T05:50:18;18.98;;;7.95;;
54883;SDS011;40776;52.880;6.016;2023-04-01T05:52:44;16.15;;;7.03;;
54883;SDS011;40776;52.880;6.016;2023-04-01T05:55:10;16.65;;;7.55;;
54883;SDS011;40776;52.880;6.016;2023-04-01T05:57:36;17.02;;;7.38;;
54883;SDS011;40776;52.880;6.016;2023-04-01T06:00:02;19.05;;;8.07;;
54883;SDS011;40776;52.880;6.016;2023-04-01T06:02:29;17.35;;;7.45;;
54883;SDS011;40776;52.880;6.016;2023-04-01T06:07:40;19.08;;;8.30;;
54883;SDS011;40776;52.880;6.016;2023-04-01T06:10:12;20.67;;;8.32;;
54883;SDS011;40776;52.880;6.016;2023-04-01T06:12:45;17.83;;;7.63;;
54883;SDS011;40776;52.880;6.016;2023-04-01T06:15:22;21.08;;;8.40;;
54883;SDS011;40776;52.880;6.016;2023-04-01T06:20:26;17.35;;;8.27;;
54883;SDS011;40776;52.880;6.016;2023-04-01T06:46:18;14.68;;;7.57;;
54883;SDS011;40776;52.880;6.016;2023-04-01T06:56:23;13.07;;;6.25;;
54883;SDS011;40776;52.880;6.016;2023-04-01T07:01:32;12.90;;;6.30;;
54883;SDS011;40776;52.880;6.016;2023-04-01T07:04:01;18.85;;;6.90;;
54883;SDS011;40776;52.880;6.016;2023-04-01T07:06:32;14.50;;;6.80;;
54883;SDS011;40776;52.880;6.016;2023-04-01T07:09:02;13.38;;;6.47;;
54883;SDS011;40776;52.880;6.016;2023-04-01T07:11:34;11.63;;;5.90;;
54883;SDS011;40776;52.880;6.016;2023-04-01T07:14:12;14.55;;;5.93;;
54883;SDS011;40776;52.880;6.016;2023-04-01T07:16:41;11.80;;;6.10;;
54883;SDS011;40776;52.880;6.016;2023-04-01T07:19:11;13.98;;;6.07;;
54883;SDS011;40776;52.880;6.016;2023-04-01T07:21:41;9.93;;;5.05;;
54883;SDS011;40776;52.880;6.016;2023-04-01T07:24:11;8.75;;;4.60;;
54883;SDS011;40776;52.880;6.016;2023-04-01T07:26:40;10.65;;;5.03;;
54883;SDS011;40776;52.880;6.016;2023-04-01T07:29:11;10.05;;;4.60;;
54883;SDS011;40776;52.880;6.016;2023-04-01T07:31:45;8.57;;;4.43;;
54883;SDS011;40776;52.880;6.016;2023-04-01T07:37:07;6.55;;;3.95;;
54883;SDS011;40776;52.880;6.016;2023-04-01T07:50:32;5.40;;;2.42;;
54883;SDS011;40776;52.880;6.016;2023-04-01T07:52:57;5.07;;;2.88;;
54883;SDS011;40776;52.880;6.016;2023-04-01T07:55:30;5.68;;;2.90;;
54883;SDS011;40776;52.880;6.016;2023-04-01T08:00:57;8.30;;;4.45;;
54883;SDS011;40776;52.880;6.016;2023-04-01T08:08:27;10.40;;;5.70;;
54883;SDS011;40776;52.880;6.016;2023-04-01T08:13:34;13.27;;;6.50;;
54883;SDS011;40776;52.880;6.016;2023-04-01T08:16:18;12.73;;;7.13;;
54883;SDS011;40776;52.880;6.016;2023-04-01T08:23:43;18.02;;;8.70;;
54883;SDS011;40776;52.880;6.016;2023-04-01T08:28:37;14.30;;;8.57;;
54883;SDS011;40776;52.880;6.016;2023-04-01T08:31:09;17.05;;;8.88;;
54883;SDS011;40776;52.880;6.016;2023-04-01T08:33:37;14.52;;;8.68;;
54883;SDS011;40776;52.880;6.016;2023-04-01T08:38:44;15.98;;;9.45;;
54883;SDS011;40776;52.880;6.016;2023-04-01T08:57:10;16.50;;;8.80;;
54883;SDS011;40776;52.880;6.016;2023-04-01T09:12:51;18.80;;;10.80;;
54883;SDS011;40776;52.880;6.016;2023-04-01T09:15:34;18.98;;;10.75;;
54883;SDS011;40776;52.880;6.016;2023-04-01T09:36:31;24.60;;;13.10;;
54883;SDS011;40776;52.880;6.016;2023-04-01T09:39:25;25.23;;;13.63;;
54883;SDS011;40776;52.880;6.016;2023-04-01T09:44:39;27.90;;;16.30;;
54883;SDS011;40776;52.880;6.016;2023-04-01T09:50:06;25.15;;;16.58;;
54883;SDS011;40776;52.880;6.016;2023-04-01T09:52:29;27.95;;;17.27;;
54883;SDS011;40776;52.880;6.016;2023-04-01T09:57:56;29.35;;;15.20;;
54883;SDS011;40776;52.880;6.016;2023-04-01T10:03:19;31.05;;;15.02;;
54883;SDS011;40776;52.880;6.016;2023-04-01T10:08:43;29.52;;;17.77;;
54883;SDS011;40776;52.880;6.016;2023-04-01T10:11:22;24.70;;;13.38;;
54883;SDS011;40776;52.880;6.016;2023-04-01T10:24:05;21.92;;;11.82;;
54883;SDS011;40776;52.880;6.016;2023-04-01T10:29:29;23.95;;;11.82;;
54883;SDS011;40776;52.880;6.016;2023-04-01T10:46:26;20.65;;;11.02;;
54883;SDS011;40776;52.880;6.016;2023-04-01T11:05:26;8.40;;;5.68;;
54883;SDS011;40776;52.880;6.016;2023-04-01T11:08:13;8.20;;;5.53;;
54883;SDS011;40776;52.880;6.016;2023-04-01T11:18:29;7.43;;;5.00;;
54883;SDS011;40776;52.880;6.016;2023-04-01T11:33:47;9.88;;;5.63;;
54883;SDS011;40776;52.880;6.016;2023-04-01T11:37:04;7.93;;;6.10;;
54883;SDS011;40776;52.880;6.016;2023-04-01T12:00:14;10.07;;;7.50;;
54883;SDS011;40776;52.880;6.016;2023-04-01T12:10:55;10.32;;;6.90;;
54883;SDS011;40776;52.880;6.016;2023-04-01T12:13:26;8.90;;;5.78;;
54883;SDS011;40776;52.880;6.016;2023-04-01T12:21:33;8.02;;;5.70;;
54883;SDS011;40776;52.880;6.016;2023-04-01T12:26:40;8.00;;;5.13;;
54883;SDS011;40776;52.880;6.016;2023-04-01T12:39:08;5.85;;;4.25;;
54883;SDS011;40776;52.880;6.016;2023-04-01T12:41:41;6.65;;;4.30;;
54883;SDS011;40776;52.880;6.016;2023-04-01T12:44:23;6.97;;;4.35;;
54883;SDS011;40776;52.880;6.016;2023-04-01T12:46:56;5.85;;;3.97;;
54883;SDS011;40776;52.880;6.016;2023-04-01T12:49:32;7.68;;;5.25;;
54883;SDS011;40776;52.880;6.016;2023-04-01T12:52:04;6.47;;;4.25;;
54883;SDS011;40776;52.880;6.016;2023-04-01T13:00:03;7.90;;;5.15;;
54883;SDS011;40776;52.880;6.016;2023-04-01T13:02:40;5.97;;;4.15;;
54883;SDS011;40776;52.880;6.016;2023-04-01T13:13:18;5.80;;;4.35;;
54883;SDS011;40776;52.880;6.016;2023-04-01T13:21:20;6.00;;;4.20;;
54883;SDS011;40776;52.880;6.016;2023-04-01T13:29:14;4.95;;;3.70;;
54883;SDS011;40776;52.880;6.016;2023-04-01T13:31:48;4.50;;;3.33;;
54883;SDS011;40776;52.880;6.016;2023-04-01T13:42:24;5.55;;;3.75;;
54883;SDS011;40776;52.880;6.016;2023-04-01T13:44:54;4.10;;;3.22;;
54883;SDS011;40776;52.880;6.016;2023-04-01T13:48:04;3.63;;;2.60;;
54883;SDS011;40776;52.880;6.016;2023-04-01T13:55:33;5.55;;;3.10;;
54883;SDS011;40776;52.880;6.016;2023-04-01T13:58:11;3.97;;;2.60;;
54883;SDS011;40776;52.880;6.016;2023-04-01T14:03:30;4.50;;;2.83;;
54883;SDS011;40776;52.880;6.016;2023-04-01T14:23:01;5.15;;;3.30;;
54883;SDS011;40776;52.880;6.016;2023-04-01T14:25:33;5.60;;;3.33;;
54883;SDS011;40776;52.880;6.016;2023-04-01T14:33:10;5.10;;;3.15;;
54883;SDS011;40776;52.880;6.016;2023-04-01T14:35:45;4.05;;;2.83;;
54883;SDS011;40776;52.880;6.016;2023-04-01T14:46:35;4.38;;;2.90;;
54883;SDS011;40776;52.880;6.016;2023-04-01T14:49:13;3.42;;;2.45;;
54883;SDS011;40776;52.880;6.016;2023-04-01T14:51:40;3.33;;;2.42;;
54883;SDS011;40776;52.880;6.016;2023-04-01T14:54:16;3.28;;;2.40;;
54883;SDS011;40776;52.880;6.016;2023-04-01T14:56:51;3.20;;;2.00;;
54883;SDS011;40776;52.880;6.016;2023-04-01T15:09:58;3.13;;;2.17;;
54883;SDS011;40776;52.880;6.016;2023-04-01T15:15:15;3.38;;;2.28;;
54883;SDS011;40776;52.880;6.016;2023-04-01T15:17:46;4.80;;;2.85;;
54883;SDS011;40776;52.880;6.016;2023-04-01T15:20:17;3.60;;;2.30;;
54883;SDS011;40776;52.880;6.016;2023-04-01T15:22:52;4.07;;;2.78;;
54883;SDS011;40776;52.880;6.016;2023-04-01T15:27:51;3.78;;;2.47;;
54883;SDS011;40776;52.880;6.016;2023-04-01T15:33:06;2.83;;;2.20;;
54883;SDS011;40776;52.880;6.016;2023-04-01T15:41:07;3.00;;;2.05;;
54883;SDS011;40776;52.880;6.016;2023-04-01T15:43:46;3.00;;;2.10;;
54883;SDS011;40776;52.880;6.016;2023-04-01T15:49:03;2.63;;;1.48;;
54883;SDS011;40776;52.880;6.016;2023-04-01T15:56:53;3.58;;;1.98;;
54883;SDS011;40776;52.880;6.016;2023-04-01T16:07:01;3.45;;;2.10;;
54883;SDS011;40776;52.880;6.016;2023-04-01T16:22:49;3.97;;;2.20;;
54883;SDS011;40776;52.880;6.016;2023-04-01T16:27:53;4.85;;;2.35;;
54883;SDS011;40776;52.880;6.016;2023-04-01T16:32:50;4.30;;;2.22;;
54883;SDS011;40776;52.880;6.016;2023-04-01T16:43:26;4.80;;;2.95;;
54883;SDS011;40776;52.880;6.016;2023-04-01T16:51:35;4.38;;;2.65;;
54883;SDS011;40776;52.880;6.016;2023-04-01T16:54:04;4.68;;;2.63;;
54883;SDS011;40776;52.880;6.016;2023-04-01T16:56:42;5.25;;;2.83;;
54883;SDS011;40776;52.880;6.016;2023-04-01T17:01:52;3.88;;;2.85;;
54883;SDS011;40776;52.880;6.016;2023-04-01T17:04:23;6.15;;;2.95;;
54883;SDS011;40776;52.880;6.016;2023-04-01T17:07:00;5.35;;;3.55;;
54883;SDS011;40776;52.880;6.016;2023-04-01T17:14:32;9.63;;;3.80;;
54883;SDS011;40776;52.880;6.016;2023-04-01T17:19:37;6.65;;;3.40;;
54883;SDS011;40776;52.880;6.016;2023-04-01T17:22:17;6.72;;;3.58;;
54883;SDS011;40776;52.880;6.016;2023-04-01T17:32:10;5.65;;;3.90;;
54883;SDS011;40776;52.880;6.016;2023-04-01T17:34:57;10.18;;;4.53;;
54883;SDS011;40776;52.880;6.016;2023-04-01T17:37:41;6.00;;;3.67;;
54883;SDS011;40776;52.880;6.016;2023-04-01T17:42:58;7.88;;;4.47;;
54883;SDS011;40776;52.880;6.016;2023-04-01T17:55:53;8.38;;;4.28;;
54883;SDS011;40776;52.880;6.016;2023-04-01T17:58:22;9.85;;;3.95;;
54883;SDS011;40776;52.880;6.016;2023-04-01T18:08:26;8.75;;;4.78;;
54883;SDS011;40776;52.880;6.016;2023-04-01T18:13:52;10.88;;;4.78;;
54883;SDS011;40776;52.880;6.016;2023-04-01T18:18:54;9.13;;;4.07;;
54883;SDS011;40776;52.880;6.016;2023-04-01T18:24:13;8.75;;;4.88;;
54883;SDS011;40776;52.880;6.016;2023-04-01T18:26:42;9.13;;;5.32;;
54883;SDS011;40776;52.880;6.016;2023-04-01T18:29:13;9.30;;;5.30;;
54883;SDS011;40776;52.880;6.016;2023-04-01T18:37:27;8.35;;;4.93;;
54883;SDS011;40776;52.880;6.016;2023-04-01T18:40:00;8.82;;;5.35;;
54883;SDS011;40776;52.880;6.016;2023-04-01T18:42:50;9.02;;;5.10;;
54883;SDS011;40776;52.880;6.016;2023-04-01T18:45:20;14.02;;;6.00;;
54883;SDS011;40776;52.880;6.016;2023-04-01T18:48:06;12.82;;;5.38;;
54883;SDS011;40776;52.880;6.016;2023-04-01T18:56:08;10.60;;;5.20;;
54883;SDS011;40776;52.880;6.016;2023-04-01T18:58:48;6.75;;;4.28;;
54883;SDS011;40776;52.880;6.016;2023-04-01T19:01:19;10.88;;;6.35;;
54883;SDS011;40776;52.880;6.016;2023-04-01T19:06:57;9.13;;;5.25;;
54883;SDS011;40776;52.880;6.016;2023-04-01T19:17:01;9.30;;;5.25;;
54883;SDS011;40776;52.880;6.016;2023-04-01T19:27:57;8.68;;;5.25;;
54883;SDS011;40776;52.880;6.016;2023-04-01T19:30:36;7.82;;;4.80;;
54883;SDS011;40776;52.880;6.016;2023-04-01T19:35:55;9.70;;;5.00;;
54883;SDS011;40776;52.880;6.016;2023-04-01T19:38:42;9.32;;;5.18;;
54883;SDS011;40776;52.880;6.016;2023-04-01T19:41:18;8.25;;;5.18;;
54883;SDS011;40776;52.880;6.016;2023-04-01T19:46:29;9.25;;;5.15;;
54883;SDS011;40776;52.880;6.016;2023-04-01T19:57:21;14.32;;;5.22;;
54883;SDS011;40776;52.880;6.016;2023-04-01T20:05:30;12.60;;;5.90;;
54883;SDS011;40776;52.880;6.016;2023-04-01T20:08:00;9.02;;;5.65;;
54883;SDS011;40776;52.880;6.016;2023-04-01T20:10:32;14.63;;;5.80;;
54883;SDS011;40776;52.880;6.016;2023-04-01T20:17:54;12.27;;;6.85;;
54883;SDS011;40776;52.880;6.016;2023-04-01T20:20:24;13.10;;;6.25;;
54883;SDS011;40776;52.880;6.016;2023-04-01T20:23:03;14.45;;;5.95;;
54883;SDS011;40776;52.880;6.016;2023-04-01T20:25:46;11.23;;;5.60;;
54883;SDS011;40776;52.880;6.016;2023-04-01T20:35:51;16.75;;;6.13;;
54883;SDS011;40776;52.880;6.016;2023-04-01T20:41:10;12.32;;;6.78;;
54883;SDS011;40776;52.880;6.016;2023-04-01T20:46:48;15.75;;;6.95;;
54883;SDS011;40776;52.880;6.016;2023-04-01T20:52:02;14.23;;;6.60;;
54883;SDS011;40776;52.880;6.016;2023-04-01T20:57:31;16.52;;;7.03;;
54883;SDS011;40776;52.880;6.016;2023-04-01T21:02:47;14.45;;;6.82;;
54883;SDS011;40776;52.880;6.016;2023-04-01T21:05:36;14.02;;;7.32;;
54883;SDS011;40776;52.880;6.016;2023-04-01T21:16:25;17.20;;;7.85;;
54883;SDS011;40776;52.880;6.016;2023-04-01T21:25:04;17.13;;;7.72;;
54883;SDS011;40776;52.880;6.016;2023-04-01T21:43:50;13.27;;;6.57;;
54883;SDS011;40776;52.880;6.016;2023-04-01T21:54:35;15.82;;;5.38;;
54883;SDS011;40776;52.880;6.016;2023-04-01T22:02:39;11.45;;;5.65;;
54883;SDS011;40776;52.880;6.016;2023-04-01T22:05:09;9.40;;;4.53;;
54883;SDS011;40776;52.880;6.016;2023-04-01T22:18:39;9.93;;;4.90;;
54883;SDS011;40776;52.880;6.016;2023-04-01T22:21:53;9.25;;;5.15;;
54883;SDS011;40776;52.880;6.016;2023-04-01T22:24:15;10.35;;;4.70;;
54883;SDS011;40776;52.880;6.016;2023-04-01T22:26:53;9.47;;;4.60;;
54883;SDS011;40776;52.880;6.016;2023-04-01T22:32:31;12.05;;;5.13;;
54883;SDS011;40776;52.880;6.016;2023-04-01T22:35:09;12.38;;;4.95;;
54883;SDS011;40776;52.880;6.016;2023-04-01T22:37:45;9.98;;;5.05;;
54883;SDS011;40776;52.880;6.016;2023-04-01T22:40:21;10.60;;;4.82;;
54883;SDS011;40776;52.880;6.016;2023-04-01T22:43:10;11.77;;;4.60;;
54883;SDS011;40776;52.880;6.016;2023-04-01T22:45:45;9.45;;;4.50;;
54883;SDS011;40776;52.880;6.016;2023-04-01T22:53:25;10.60;;;4.63;;
54883;SDS011;40776;52.880;6.016;2023-04-01T22:55:55;9.40;;;4.80;;
54883;SDS011;40776;52.880;6.016;2023-04-01T22:58:28;9.55;;;4.32;;
54883;SDS011;40776;52.880;6.016;2023-04-01T23:00:59;9.40;;;4.57;;
54883;SDS011;40776;52.880;6.016;2023-04-01T23:03:28;9.88;;;5.82;;
54883;SDS011;40776;52.880;6.016;2023-04-01T23:05:56;10.05;;;4.10;;
54883;SDS011;40776;52.880;6.016;2023-04-01T23:11:13;10.45;;;6.13;;
54883;SDS011;40776;52.880;6.016;2023-04-01T23:13:54;10.80;;;4.60;;
54883;SDS011;40776;52.880;6.016;2023-04-01T23:16:28;9.80;;;4.60;;
54883;SDS011;40776;52.880;6.016;2023-04-01T23:28:50;9.20;;;4.60;;
54883;SDS011;40776;52.880;6.016;2023-04-01T23:31:31;11.32;;;4.97;;
54883;SDS011;40776;52.880;6.016;2023-04-01T23:34:15;8.10;;;4.53;;
54883;SDS011;40776;52.880;6.016;2023-04-01T23:36:42;6.30;;;4.03;;
54883;SDS011;40776;52.880;6.016;2023-04-01T23:41:58;10.30;;;4.80;;
54883;SDS011;40776;52.880;6.016;2023-04-01T23:44:25;9.70;;;4.43;;
54883;SDS011;40776;52.880;6.016;2023-04-01T23:46:52;6.57;;;3.60;;
54883;SDS011;40776;52.880;6.016;2023-04-01T23:49:24;14.23;;;4.40;;
54883;SDS011;40776;52.880;6.016;2023-04-01T23:52:34;11.15;;;4.03;;
54883;SDS011;40776;52.880;6.016;2023-04-01T23:54:46;9.20;;;2.95;;
54883;SDS011;40776;52.880;6.016;2023-04-01T23:57:15;10.50;;;4.45;;
54883;SDS011;40776;52.880;6.016;2023-04-01T23:59:43;13.13;;;3.97;;
